LVK weather

Livermore Municipal Airport
Livermore, California, United States

Public forecast

Using degrees Fahrenheit for public forecast. Weather courtesy of forecast.io.

Current aviation weather report (METAR) for Livermore Municipal Airport

Retrieved 2019/10/20 01:53 UTC (23 minutes ago):

KLVK 200153Z 31007KT 10SM FEW017 16/13 A3003 RMK AO2 SLP168 T01560128

Aviation forecast (TAF) for Livermore Municipal Airport

Retrieved 2019-10-20 00:33 UTC (2 hours ago):

TAF KLVK 192331Z 2000/2024 29008KT P6SM BKN025 BKN150 FM200300 26005KT P6SM FEW030 FM200800 VRB03KT P6SM SKC FM202100 28010KT P6SM SKC